sensor_id;sensor_type;location;lat;lon;timestamp;pressure;altitude;pressure_sealevel;temperature;humidity
67345;BME280;54230;52.402;6.276;2022-12-01T00:00:00;102840.00000000001;;;6.0;95.1
67345;BME280;54230;52.402;6.276;2022-12-01T00:05:00;102840.00000000001;;;6.0;95.0
67345;BME280;54230;52.402;6.276;2022-12-01T00:10:00;102840.00000000001;;;5.9;94.6
67345;BME280;54230;52.402;6.276;2022-12-01T00:15:00;102840.00000000001;;;6.0;95.0
67345;BME280;54230;52.402;6.276;2022-12-01T00:20:00;102840.00000000001;;;6.0;95.1
67345;BME280;54230;52.402;6.276;2022-12-01T00:25:00;102840.00000000001;;;5.9;95.3
67345;BME280;54230;52.402;6.276;2022-12-01T00:30:00;102840.00000000001;;;6.0;95.2
67345;BME280;54230;52.402;6.276;2022-12-01T00:35:00;102840.00000000001;;;5.9;95.3
67345;BME280;54230;52.402;6.276;2022-12-01T00:40:00;102840.00000000001;;;5.9;95.8
67345;BME280;54230;52.402;6.276;2022-12-01T00:45:00;102840.00000000001;;;5.9;95.2
67345;BME280;54230;52.402;6.276;2022-12-01T00:50:00;102840.00000000001;;;6.0;95.0
67345;BME280;54230;52.402;6.276;2022-12-01T00:55:00;102830.0;;;5.9;95.5
67345;BME280;54230;52.402;6.276;2022-12-01T01:00:00;102840.00000000001;;;5.9;95.2
67345;BME280;54230;52.402;6.276;2022-12-01T01:05:00;102840.00000000001;;;5.9;95.3
67345;BME280;54230;52.402;6.276;2022-12-01T01:10:00;102840.00000000001;;;6.0;95.7
67345;BME280;54230;52.402;6.276;2022-12-01T01:15:01;102840.00000000001;;;6.0;95.7
67345;BME280;54230;52.402;6.276;2022-12-01T01:20:00;102850.0;;;6.0;95.6
67345;BME280;54230;52.402;6.276;2022-12-01T01:25:00;102850.0;;;6.0;95.9
67345;BME280;54230;52.402;6.276;2022-12-01T01:30:00;102850.0;;;6.0;95.8
67345;BME280;54230;52.402;6.276;2022-12-01T01:35:00;102850.0;;;6.0;95.9
67345;BME280;54230;52.402;6.276;2022-12-01T01:40:00;102859.99999999999;;;6.1;95.7
67345;BME280;54230;52.402;6.276;2022-12-01T01:45:00;102850.0;;;6.0;95.3
67345;BME280;54230;52.402;6.276;2022-12-01T01:50:02;102859.99999999999;;;5.9;95.7
67345;BME280;54230;52.402;6.276;2022-12-01T01:55:00;102859.99999999999;;;6.0;95.5
67345;BME280;54230;52.402;6.276;2022-12-01T02:00:02;102859.99999999999;;;5.9;95.1
67345;BME280;54230;52.402;6.276;2022-12-01T02:05:01;102870.0;;;5.9;94.9
67345;BME280;54230;52.402;6.276;2022-12-01T02:10:00;102859.99999999999;;;5.9;94.4
67345;BME280;54230;52.402;6.276;2022-12-01T02:15:07;102870.0;;;5.9;94.2
67345;BME280;54230;52.402;6.276;2022-12-01T02:20:18;102870.0;;;5.9;94.0
67345;BME280;54230;52.402;6.276;2022-12-01T02:25:09;102859.99999999999;;;5.9;93.9
67345;BME280;54230;52.402;6.276;2022-12-01T02:30:07;102859.99999999999;;;5.9;93.6
67345;BME280;54230;52.402;6.276;2022-12-01T02:35:07;102859.99999999999;;;5.9;93.5
67345;BME280;54230;52.402;6.276;2022-12-01T02:40:05;102859.99999999999;;;5.8;93.6
67345;BME280;54230;52.402;6.276;2022-12-01T02:45:02;102859.99999999999;;;5.8;93.7
67345;BME280;54230;52.402;6.276;2022-12-01T02:50:01;102859.99999999999;;;5.8;93.6
67345;BME280;54230;52.402;6.276;2022-12-01T02:55:00;102859.99999999999;;;5.8;93.9
67345;BME280;54230;52.402;6.276;2022-12-01T03:00:00;102859.99999999999;;;5.8;94.1
67345;BME280;54230;52.402;6.276;2022-12-01T03:05:02;102859.99999999999;;;5.8;94.1
67345;BME280;54230;52.402;6.276;2022-12-01T03:10:05;102870.0;;;5.8;93.6
67345;BME280;54230;52.402;6.276;2022-12-01T03:15:03;102870.0;;;5.8;94.1
67345;BME280;54230;52.402;6.276;2022-12-01T03:20:04;102870.0;;;5.8;94.2
67345;BME280;54230;52.402;6.276;2022-12-01T03:25:01;102859.99999999999;;;5.8;94.3
67345;BME280;54230;52.402;6.276;2022-12-01T03:30:01;102859.99999999999;;;5.8;94.4
67345;BME280;54230;52.402;6.276;2022-12-01T03:35:03;102850.0;;;5.8;94.4
67345;BME280;54230;52.402;6.276;2022-12-01T03:40:01;102859.99999999999;;;5.8;95.0
67345;BME280;54230;52.402;6.276;2022-12-01T03:45:04;102859.99999999999;;;5.7;95.1
67345;BME280;54230;52.402;6.276;2022-12-01T03:50:00;102859.99999999999;;;5.8;95.2
67345;BME280;54230;52.402;6.276;2022-12-01T03:55:07;102850.0;;;5.6;95.4
67345;BME280;54230;52.402;6.276;2022-12-01T04:00:00;102859.99999999999;;;5.6;95.8
67345;BME280;54230;52.402;6.276;2022-12-01T04:05:00;102859.99999999999;;;5.6;95.9
67345;BME280;54230;52.402;6.276;2022-12-01T04:10:00;102859.99999999999;;;5.6;96.0
67345;BME280;54230;52.402;6.276;2022-12-01T04:15:02;102859.99999999999;;;5.6;96.4
67345;BME280;54230;52.402;6.276;2022-12-01T04:20:01;102859.99999999999;;;5.7;96.2
67345;BME280;54230;52.402;6.276;2022-12-01T04:25:00;102859.99999999999;;;5.7;96.0
67345;BME280;54230;52.402;6.276;2022-12-01T04:30:00;102870.0;;;5.7;96.1
67345;BME280;54230;52.402;6.276;2022-12-01T04:35:00;102870.0;;;5.7;96.2
67345;BME280;54230;52.402;6.276;2022-12-01T04:40:00;102870.0;;;5.7;95.8
67345;BME280;54230;52.402;6.276;2022-12-01T04:45:00;102870.0;;;5.6;96.1
67345;BME280;54230;52.402;6.276;2022-12-01T04:50:00;102859.99999999999;;;5.7;95.6
67345;BME280;54230;52.402;6.276;2022-12-01T04:55:00;102859.99999999999;;;5.7;95.2
67345;BME280;54230;52.402;6.276;2022-12-01T05:00:00;102859.99999999999;;;5.7;95.0
67345;BME280;54230;52.402;6.276;2022-12-01T05:05:00;102870.0;;;5.7;95.0
67345;BME280;54230;52.402;6.276;2022-12-01T05:10:00;102870.0;;;5.7;95.0
67345;BME280;54230;52.402;6.276;2022-12-01T05:15:00;102870.0;;;5.7;94.9
67345;BME280;54230;52.402;6.276;2022-12-01T05:20:00;102859.99999999999;;;5.7;94.6
67345;BME280;54230;52.402;6.276;2022-12-01T05:25:00;102859.99999999999;;;5.7;94.7
67345;BME280;54230;52.402;6.276;2022-12-01T05:30:00;102859.99999999999;;;5.7;94.8
67345;BME280;54230;52.402;6.276;2022-12-01T05:35:00;102859.99999999999;;;5.7;94.9
67345;BME280;54230;52.402;6.276;2022-12-01T05:40:00;102859.99999999999;;;5.7;94.8
67345;BME280;54230;52.402;6.276;2022-12-01T05:45:00;102870.0;;;5.8;95.0
67345;BME280;54230;52.402;6.276;2022-12-01T05:50:00;102870.0;;;5.7;94.8
67345;BME280;54230;52.402;6.276;2022-12-01T05:55:00;102870.0;;;5.8;94.6
67345;BME280;54230;52.402;6.276;2022-12-01T06:00:00;102870.0;;;5.7;95.2
67345;BME280;54230;52.402;6.276;2022-12-01T06:05:00;102870.0;;;5.7;94.5
67345;BME280;54230;52.402;6.276;2022-12-01T06:10:00;102870.0;;;5.8;95.5
67345;BME280;54230;52.402;6.276;2022-12-01T06:15:00;102870.0;;;5.7;95.4
67345;BME280;54230;52.402;6.276;2022-12-01T06:20:00;102880.0;;;5.7;95.1
67345;BME280;54230;52.402;6.276;2022-12-01T06:25:00;102880.0;;;5.7;95.0
67345;BME280;54230;52.402;6.276;2022-12-01T06:30:00;102880.0;;;5.7;95.1
67345;BME280;54230;52.402;6.276;2022-12-01T06:35:00;102890.00000000001;;;5.7;95.1
67345;BME280;54230;52.402;6.276;2022-12-01T06:40:00;102890.00000000001;;;5.8;94.8
67345;BME280;54230;52.402;6.276;2022-12-01T06:45:00;102890.00000000001;;;5.8;94.9
67345;BME280;54230;52.402;6.276;2022-12-01T06:50:00;102890.00000000001;;;5.7;95.1
67345;BME280;54230;52.402;6.276;2022-12-01T06:55:00;102900.0;;;5.6;96.0
67345;BME280;54230;52.402;6.276;2022-12-01T07:00:00;102900.0;;;5.6;95.1
67345;BME280;54230;52.402;6.276;2022-12-01T07:05:00;102909.99999999999;;;5.6;95.3
67345;BME280;54230;52.402;6.276;2022-12-01T07:10:00;102900.0;;;5.7;94.9
67345;BME280;54230;52.402;6.276;2022-12-01T07:15:00;102909.99999999999;;;5.6;95.0
67345;BME280;54230;52.402;6.276;2022-12-01T07:20:00;102920.0;;;5.6;94.3
67345;BME280;54230;52.402;6.276;2022-12-01T07:25:00;102920.0;;;5.6;94.7
67345;BME280;54230;52.402;6.276;2022-12-01T07:30:00;102920.0;;;5.6;94.6
67345;BME280;54230;52.402;6.276;2022-12-01T07:35:00;102920.0;;;5.7;94.2
67345;BME280;54230;52.402;6.276;2022-12-01T07:40:00;102920.0;;;5.7;94.2
67345;BME280;54230;52.402;6.276;2022-12-01T07:45:00;102920.0;;;5.6;94.7
67345;BME280;54230;52.402;6.276;2022-12-01T07:50:00;102920.0;;;5.6;94.7
67345;BME280;54230;52.402;6.276;2022-12-01T07:55:00;102930.0;;;5.6;94.3
67345;BME280;54230;52.402;6.276;2022-12-01T08:00:00;102930.0;;;5.6;94.8
67345;BME280;54230;52.402;6.276;2022-12-01T08:05:00;102940.00000000001;;;5.6;94.4
67345;BME280;54230;52.402;6.276;2022-12-01T08:10:00;102940.00000000001;;;5.5;95.0
67345;BME280;54230;52.402;6.276;2022-12-01T08:15:00;102950.0;;;5.6;95.0
67345;BME280;54230;52.402;6.276;2022-12-01T08:20:00;102940.00000000001;;;5.7;94.7
67345;BME280;54230;52.402;6.276;2022-12-01T08:25:00;102950.0;;;5.6;94.8
67345;BME280;54230;52.402;6.276;2022-12-01T08:30:00;102950.0;;;5.7;95.3
67345;BME280;54230;52.402;6.276;2022-12-01T08:35:00;102950.0;;;5.7;96.0
67345;BME280;54230;52.402;6.276;2022-12-01T08:40:00;102940.00000000001;;;5.8;95.7
67345;BME280;54230;52.402;6.276;2022-12-01T08:45:00;102950.0;;;5.8;95.3
67345;BME280;54230;52.402;6.276;2022-12-01T08:50:00;102930.0;;;5.7;95.2
67345;BME280;54230;52.402;6.276;2022-12-01T08:55:00;102950.0;;;5.8;95.7
67345;BME280;54230;52.402;6.276;2022-12-01T09:00:00;102950.0;;;6.0;95.0
67345;BME280;54230;52.402;6.276;2022-12-01T09:05:00;102950.0;;;6.0;94.6
67345;BME280;54230;52.402;6.276;2022-12-01T09:10:00;102959.99999999999;;;6.1;93.8
67345;BME280;54230;52.402;6.276;2022-12-01T09:15:00;102959.99999999999;;;6.1;93.7
67345;BME280;54230;52.402;6.276;2022-12-01T09:20:00;102970.0;;;6.1;93.9
67345;BME280;54230;52.402;6.276;2022-12-01T09:25:00;102959.99999999999;;;6.0;94.3
67345;BME280;54230;52.402;6.276;2022-12-01T09:30:00;102970.0;;;6.0;92.6
67345;BME280;54230;52.402;6.276;2022-12-01T09:35:00;102959.99999999999;;;6.0;94.4
67345;BME280;54230;52.402;6.276;2022-12-01T09:40:00;102959.99999999999;;;6.1;93.7
67345;BME280;54230;52.402;6.276;2022-12-01T09:45:01;102959.99999999999;;;6.2;92.7
67345;BME280;54230;52.402;6.276;2022-12-01T09:50:03;102959.99999999999;;;6.2;92.0
67345;BME280;54230;52.402;6.276;2022-12-01T09:55:00;102959.99999999999;;;6.5;91.9
67345;BME280;54230;52.402;6.276;2022-12-01T10:00:03;102950.0;;;6.5;91.5
67345;BME280;54230;52.402;6.276;2022-12-01T10:05:02;102950.0;;;6.3;91.4
67345;BME280;54230;52.402;6.276;2022-12-01T10:10:02;102940.00000000001;;;6.3;91.2
67345;BME280;54230;52.402;6.276;2022-12-01T10:15:13;102930.0;;;6.4;90.9
67345;BME280;54230;52.402;6.276;2022-12-01T10:20:03;102930.0;;;6.5;90.9
67345;BME280;54230;52.402;6.276;2022-12-01T10:25:09;102930.0;;;6.7;90.7
67345;BME280;54230;52.402;6.276;2022-12-01T10:30:03;102930.0;;;6.8;89.4
67345;BME280;54230;52.402;6.276;2022-12-01T10:35:00;102920.0;;;6.9;88.9
67345;BME280;54230;52.402;6.276;2022-12-01T10:40:00;102920.0;;;7.0;88.3
67345;BME280;54230;52.402;6.276;2022-12-01T10:45:01;102930.0;;;7.0;88.6
67345;BME280;54230;52.402;6.276;2022-12-01T10:50:02;102930.0;;;7.0;89.1
67345;BME280;54230;52.402;6.276;2022-12-01T10:55:01;102920.0;;;7.0;88.8
67345;BME280;54230;52.402;6.276;2022-12-01T11:00:03;102920.0;;;7.1;88.3
67345;BME280;54230;52.402;6.276;2022-12-01T11:05:02;102920.0;;;7.3;87.9
67345;BME280;54230;52.402;6.276;2022-12-01T11:10:04;102920.0;;;7.2;86.4
67345;BME280;54230;52.402;6.276;2022-12-01T11:15:00;102909.99999999999;;;7.0;86.9
67345;BME280;54230;52.402;6.276;2022-12-01T11:25:01;102890.00000000001;;;7.0;86.6
67345;BME280;54230;52.402;6.276;2022-12-01T11:30:02;102890.00000000001;;;7.1;86.6
67345;BME280;54230;52.402;6.276;2022-12-01T11:35:02;102890.00000000001;;;7.0;86.0
67345;BME280;54230;52.402;6.276;2022-12-01T11:40:05;102880.0;;;7.2;86.0
67345;BME280;54230;52.402;6.276;2022-12-01T11:45:06;102880.0;;;7.5;86.2
67345;BME280;54230;52.402;6.276;2022-12-01T11:50:03;102880.0;;;7.2;85.0
67345;BME280;54230;52.402;6.276;2022-12-01T11:55:06;102870.0;;;7.4;85.4
67345;BME280;54230;52.402;6.276;2022-12-01T12:00:00;102870.0;;;7.7;84.0
67345;BME280;54230;52.402;6.276;2022-12-01T12:05:13;102870.0;;;7.8;83.1
67345;BME280;54230;52.402;6.276;2022-12-01T12:10:08;102870.0;;;7.8;82.7
67345;BME280;54230;52.402;6.276;2022-12-01T12:15:07;102870.0;;;7.8;82.9
67345;BME280;54230;52.402;6.276;2022-12-01T12:20:10;102870.0;;;7.8;82.6
67345;BME280;54230;52.402;6.276;2022-12-01T12:25:11;102859.99999999999;;;7.6;81.9
67345;BME280;54230;52.402;6.276;2022-12-01T12:30:14;102859.99999999999;;;7.7;82.4
67345;BME280;54230;52.402;6.276;2022-12-01T12:35:04;102859.99999999999;;;7.8;82.2
67345;BME280;54230;52.402;6.276;2022-12-01T12:40:17;102859.99999999999;;;7.9;82.3
67345;BME280;54230;52.402;6.276;2022-12-01T12:45:04;102850.0;;;7.8;82.0
67345;BME280;54230;52.402;6.276;2022-12-01T12:50:10;102850.0;;;7.7;81.8
67345;BME280;54230;52.402;6.276;2022-12-01T12:55:03;102840.00000000001;;;7.9;81.8
67345;BME280;54230;52.402;6.276;2022-12-01T13:00:04;102840.00000000001;;;7.8;81.4
67345;BME280;54230;52.402;6.276;2022-12-01T13:05:06;102840.00000000001;;;7.7;82.0
67345;BME280;54230;52.402;6.276;2022-12-01T13:10:04;102840.00000000001;;;7.8;82.2
67345;BME280;54230;52.402;6.276;2022-12-01T13:15:04;102840.00000000001;;;7.8;81.3
67345;BME280;54230;52.402;6.276;2022-12-01T13:20:00;102840.00000000001;;;7.7;81.5
67345;BME280;54230;52.402;6.276;2022-12-01T13:25:01;102840.00000000001;;;7.8;82.1
67345;BME280;54230;52.402;6.276;2022-12-01T13:30:00;102830.0;;;7.8;82.3
67345;BME280;54230;52.402;6.276;2022-12-01T13:35:01;102830.0;;;7.8;82.4
67345;BME280;54230;52.402;6.276;2022-12-01T13:40:09;102830.0;;;7.6;83.6
67345;BME280;54230;52.402;6.276;2022-12-01T13:45:07;102830.0;;;7.5;83.8
67345;BME280;54230;52.402;6.276;2022-12-01T14:00:05;102830.0;;;7.2;84.1
67345;BME280;54230;52.402;6.276;2022-12-01T14:15:03;102820.0;;;7.1;84.9
67345;BME280;54230;52.402;6.276;2022-12-01T14:20:06;102820.0;;;7.1;84.8
67345;BME280;54230;52.402;6.276;2022-12-01T14:25:00;102820.0;;;7.1;84.8
67345;BME280;54230;52.402;6.276;2022-12-01T14:35:02;102840.00000000001;;;6.9;84.1
67345;BME280;54230;52.402;6.276;2022-12-01T14:40:04;102840.00000000001;;;6.9;83.8
67345;BME280;54230;52.402;6.276;2022-12-01T14:45:00;102840.00000000001;;;6.8;83.8
67345;BME280;54230;52.402;6.276;2022-12-01T14:50:05;102840.00000000001;;;6.7;83.7
67345;BME280;54230;52.402;6.276;2022-12-01T14:55:02;102850.0;;;6.7;84.5
67345;BME280;54230;52.402;6.276;2022-12-01T15:00:03;102840.00000000001;;;6.7;85.0
67345;BME280;54230;52.402;6.276;2022-12-01T15:05:10;102840.00000000001;;;6.7;84.4
67345;BME280;54230;52.402;6.276;2022-12-01T15:10:00;102840.00000000001;;;6.7;84.5
67345;BME280;54230;52.402;6.276;2022-12-01T15:15:00;102840.00000000001;;;6.7;84.6
67345;BME280;54230;52.402;6.276;2022-12-01T15:20:00;102840.00000000001;;;6.7;84.9
67345;BME280;54230;52.402;6.276;2022-12-01T15:25:05;102840.00000000001;;;6.7;85.6
67345;BME280;54230;52.402;6.276;2022-12-01T15:30:00;102830.0;;;6.7;85.4
67345;BME280;54230;52.402;6.276;2022-12-01T15:35:00;102840.00000000001;;;6.7;85.6
67345;BME280;54230;52.402;6.276;2022-12-01T15:40:04;102830.0;;;6.6;86.5
67345;BME280;54230;52.402;6.276;2022-12-01T15:45:01;102830.0;;;6.7;86.1
67345;BME280;54230;52.402;6.276;2022-12-01T15:50:00;102840.00000000001;;;6.6;86.6
67345;BME280;54230;52.402;6.276;2022-12-01T15:55:02;102840.00000000001;;;6.6;86.8
67345;BME280;54230;52.402;6.276;2022-12-01T16:00:00;102840.00000000001;;;6.7;86.5
67345;BME280;54230;52.402;6.276;2022-12-01T16:05:02;102840.00000000001;;;6.7;86.5
67345;BME280;54230;52.402;6.276;2022-12-01T16:10:00;102840.00000000001;;;6.5;86.7
67345;BME280;54230;52.402;6.276;2022-12-01T16:15:12;102840.00000000001;;;6.5;86.6
67345;BME280;54230;52.402;6.276;2022-12-01T16:20:13;102840.00000000001;;;6.4;87.3
67345;BME280;54230;52.402;6.276;2022-12-01T16:25:00;102830.0;;;6.6;87.1
67345;BME280;54230;52.402;6.276;2022-12-01T16:30:02;102840.00000000001;;;6.5;87.2
67345;BME280;54230;52.402;6.276;2022-12-01T16:35:00;102840.00000000001;;;6.4;87.5
67345;BME280;54230;52.402;6.276;2022-12-01T16:40:00;102840.00000000001;;;6.5;86.9
67345;BME280;54230;52.402;6.276;2022-12-01T16:45:00;102840.00000000001;;;6.5;87.5
67345;BME280;54230;52.402;6.276;2022-12-01T16:50:00;102850.0;;;6.5;87.5
67345;BME280;54230;52.402;6.276;2022-12-01T16:55:00;102850.0;;;6.6;87.4
67345;BME280;54230;52.402;6.276;2022-12-01T17:00:00;102840.00000000001;;;6.6;87.2
67345;BME280;54230;52.402;6.276;2022-12-01T17:05:00;102840.00000000001;;;6.5;87.5
67345;BME280;54230;52.402;6.276;2022-12-01T17:10:00;102850.0;;;6.4;87.2
67345;BME280;54230;52.402;6.276;2022-12-01T17:15:00;102840.00000000001;;;6.2;89.1
67345;BME280;54230;52.402;6.276;2022-12-01T17:20:00;102840.00000000001;;;6.3;87.7
67345;BME280;54230;52.402;6.276;2022-12-01T17:25:00;102840.00000000001;;;6.3;88.1
67345;BME280;54230;52.402;6.276;2022-12-01T17:30:00;102840.00000000001;;;6.3;88.5
67345;BME280;54230;52.402;6.276;2022-12-01T17:35:00;102850.0;;;6.2;88.7
67345;BME280;54230;52.402;6.276;2022-12-01T17:40:00;102850.0;;;6.3;88.0
67345;BME280;54230;52.402;6.276;2022-12-01T17:45:00;102850.0;;;6.2;88.0
67345;BME280;54230;52.402;6.276;2022-12-01T17:50:00;102850.0;;;6.2;87.6
67345;BME280;54230;52.402;6.276;2022-12-01T17:55:00;102850.0;;;6.2;88.5
67345;BME280;54230;52.402;6.276;2022-12-01T18:00:00;102859.99999999999;;;6.2;88.4
67345;BME280;54230;52.402;6.276;2022-12-01T18:05:00;102859.99999999999;;;6.2;88.3
67345;BME280;54230;52.402;6.276;2022-12-01T18:10:00;102850.0;;;6.2;88.2
67345;BME280;54230;52.402;6.276;2022-12-01T18:15:00;102859.99999999999;;;6.1;89.0
67345;BME280;54230;52.402;6.276;2022-12-01T18:20:00;102859.99999999999;;;6.1;89.0
67345;BME280;54230;52.402;6.276;2022-12-01T18:25:00;102859.99999999999;;;6.1;88.6
67345;BME280;54230;52.402;6.276;2022-12-01T18:30:00;102859.99999999999;;;6.0;89.4
67345;BME280;54230;52.402;6.276;2022-12-01T18:35:00;102859.99999999999;;;6.0;89.1
67345;BME280;54230;52.402;6.276;2022-12-01T18:40:00;102850.0;;;6.0;88.8
67345;BME280;54230;52.402;6.276;2022-12-01T18:45:00;102850.0;;;6.0;88.9
67345;BME280;54230;52.402;6.276;2022-12-01T18:50:00;102859.99999999999;;;5.9;89.1
67345;BME280;54230;52.402;6.276;2022-12-01T18:55:00;102859.99999999999;;;5.9;89.5
67345;BME280;54230;52.402;6.276;2022-12-01T19:00:00;102859.99999999999;;;5.8;89.6
67345;BME280;54230;52.402;6.276;2022-12-01T19:05:00;102859.99999999999;;;5.7;89.8
67345;BME280;54230;52.402;6.276;2022-12-01T19:10:00;102859.99999999999;;;5.9;89.4
67345;BME280;54230;52.402;6.276;2022-12-01T19:15:00;102850.0;;;5.9;88.2
67345;BME280;54230;52.402;6.276;2022-12-01T19:20:00;102859.99999999999;;;5.9;88.0
67345;BME280;54230;52.402;6.276;2022-12-01T19:25:00;102859.99999999999;;;5.9;87.4
67345;BME280;54230;52.402;6.276;2022-12-01T19:30:00;102859.99999999999;;;5.8;85.4
67345;BME280;54230;52.402;6.276;2022-12-01T19:35:00;102859.99999999999;;;5.7;84.1
67345;BME280;54230;52.402;6.276;2022-12-01T19:40:00;102859.99999999999;;;5.6;84.4
67345;BME280;54230;52.402;6.276;2022-12-01T19:45:00;102859.99999999999;;;5.7;84.5
67345;BME280;54230;52.402;6.276;2022-12-01T19:50:00;102870.0;;;5.6;84.9
67345;BME280;54230;52.402;6.276;2022-12-01T19:55:00;102859.99999999999;;;5.5;84.9
67345;BME280;54230;52.402;6.276;2022-12-01T20:00:00;102859.99999999999;;;5.5;84.5
67345;BME280;54230;52.402;6.276;2022-12-01T20:05:00;102859.99999999999;;;5.4;84.5
67345;BME280;54230;52.402;6.276;2022-12-01T20:10:00;102870.0;;;5.4;85.2
67345;BME280;54230;52.402;6.276;2022-12-01T20:15:00;102870.0;;;5.4;85.4
67345;BME280;54230;52.402;6.276;2022-12-01T20:20:00;102840.00000000001;;;5.2;85.9
67345;BME280;54230;52.402;6.276;2022-12-01T20:25:00;102859.99999999999;;;5.3;86.3
67345;BME280;54230;52.402;6.276;2022-12-01T20:30:00;102859.99999999999;;;5.3;86.7
67345;BME280;54230;52.402;6.276;2022-12-01T20:35:00;102870.0;;;5.3;87.3
67345;BME280;54230;52.402;6.276;2022-12-01T20:40:00;102859.99999999999;;;5.3;88.1
67345;BME280;54230;52.402;6.276;2022-12-01T20:45:00;102859.99999999999;;;5.2;88.4
67345;BME280;54230;52.402;6.276;2022-12-01T20:50:00;102840.00000000001;;;5.1;88.9
67345;BME280;54230;52.402;6.276;2022-12-01T20:55:00;102859.99999999999;;;5.2;88.8
67345;BME280;54230;52.402;6.276;2022-12-01T21:00:00;102850.0;;;5.2;88.9
67345;BME280;54230;52.402;6.276;2022-12-01T21:05:00;102850.0;;;5.2;89.1
67345;BME280;54230;52.402;6.276;2022-12-01T21:10:00;102850.0;;;5.2;89.1
67345;BME280;54230;52.402;6.276;2022-12-01T21:25:06;102830.0;;;5.2;88.7
67345;BME280;54230;52.402;6.276;2022-12-01T21:30:00;102820.0;;;5.2;88.7
67345;BME280;54230;52.402;6.276;2022-12-01T21:35:06;102830.0;;;5.1;88.2
67345;BME280;54230;52.402;6.276;2022-12-01T21:40:00;102830.0;;;5.1;88.1
67345;BME280;54230;52.402;6.276;2022-12-01T21:45:00;102830.0;;;5.1;87.7
67345;BME280;54230;52.402;6.276;2022-12-01T21:50:03;102809.99999999999;;;4.9;87.8
67345;BME280;54230;52.402;6.276;2022-12-01T21:55:01;102820.0;;;5.0;87.5
67345;BME280;54230;52.402;6.276;2022-12-01T22:05:00;102809.99999999999;;;5.0;87.7
67345;BME280;54230;52.402;6.276;2022-12-01T22:10:00;102820.0;;;5.0;87.2
67345;BME280;54230;52.402;6.276;2022-12-01T22:15:00;102820.0;;;4.9;87.5
67345;BME280;54230;52.402;6.276;2022-12-01T22:20:00;102820.0;;;5.0;87.5
67345;BME280;54230;52.402;6.276;2022-12-01T22:25:11;102820.0;;;5.0;87.5
67345;BME280;54230;52.402;6.276;2022-12-01T22:30:01;102820.0;;;4.9;87.0
67345;BME280;54230;52.402;6.276;2022-12-01T22:35:16;102809.99999999999;;;4.9;86.8
67345;BME280;54230;52.402;6.276;2022-12-01T22:40:00;102809.99999999999;;;4.9;86.2
67345;BME280;54230;52.402;6.276;2022-12-01T22:45:01;102809.99999999999;;;4.9;85.9
67345;BME280;54230;52.402;6.276;2022-12-01T22:50:00;102809.99999999999;;;4.8;85.5
67345;BME280;54230;52.402;6.276;2022-12-01T22:55:00;102820.0;;;4.7;85.3
67345;BME280;54230;52.402;6.276;2022-12-01T23:00:08;102809.99999999999;;;4.7;84.9
67345;BME280;54230;52.402;6.276;2022-12-01T23:05:14;102800.0;;;4.7;85.1
67345;BME280;54230;52.402;6.276;2022-12-01T23:10:05;102809.99999999999;;;4.7;84.4
67345;BME280;54230;52.402;6.276;2022-12-01T23:15:14;102809.99999999999;;;4.6;84.7
67345;BME280;54230;52.402;6.276;2022-12-01T23:20:19;102800.0;;;4.6;84.6
67345;BME280;54230;52.402;6.276;2022-12-01T23:25:01;102800.0;;;4.6;84.6
67345;BME280;54230;52.402;6.276;2022-12-01T23:30:00;102800.0;;;4.7;84.8
67345;BME280;54230;52.402;6.276;2022-12-01T23:35:00;102790.00000000001;;;4.7;84.6
67345;BME280;54230;52.402;6.276;2022-12-01T23:40:00;102800.0;;;4.7;84.3
67345;BME280;54230;52.402;6.276;2022-12-01T23:45:00;102790.00000000001;;;4.6;84.2
67345;BME280;54230;52.402;6.276;2022-12-01T23:50:02;102790.00000000001;;;4.6;83.8
67345;BME280;54230;52.402;6.276;2022-12-01T23:55:00;102780.0;;;4.6;83.6
